PHKO METAR and TAF weather

Enter ICAO airport designator
Station Type Date Time Source
PHKO METAR 2021/06/24 06:53 UTC NOAA

PHKO 240653Z 11010KT 10SM OVC060 23/21 A3004 RMK AO2 RAB0558E28 SLP170 P0001 T02330211 $


Station Type Date Time Source
PHKO Decoded METAR 2021/06/24 06:53 UTC NOAA

KONA INTERNATIONAL AIRPORT, HI, United States (PHKO) 19-44N 156-03W 27M
Jun 24, 2021 - 02:53 AM EDT / 2021.06.24 0653 UTC
Wind: from the ESE (110 degrees) at 12 MPH (10 KT):0
Visibility: 10 mile(s):0
Sky conditions: overcast
Precipitation last hour: 0.01 inches
Temperature: 73.9 F (23.3 C)
Dew Point: 70.0 F (21.1 C)
Relative Humidity: 87%
Pressure (altimeter): 30.04 in. Hg (1017 hPa)
ob: PHKO 240653Z 11010KT 10SM OVC060 23/21 A3004 RMK AO2 RAB0558E28 SLP170 P0001 T02330211
cycle: 7

Station Type Date Time Source
PHKO TAF 2021/06/24 06:22 UTC NOAA

TAF PHKO 240520Z 2406/2506 08007KT P6SM SCT025 BKN040
TEMPO 2406/2407 VRB06KT BKN020 OVC035
FM241900 22010KT P6SM SCT035 SCT050
FM250300 VRB06KT P6SM SCT025 BKN045

Example: see airport list